sensor_id;sensor_type;location;lat;lon;timestamp;temperature;humidity
24232;DHT22;12364;47.810;8.810;2023-04-19T03:47:29;13.40;93.40
24232;DHT22;12364;47.810;8.810;2023-04-19T03:49:56;13.40;93.30
24232;DHT22;12364;47.810;8.810;2023-04-19T03:52:23;13.40;93.30
24232;DHT22;12364;47.810;8.810;2023-04-19T03:54:51;13.40;93.20
24232;DHT22;12364;47.810;8.810;2023-04-19T03:57:18;13.40;93.30
24232;DHT22;12364;47.810;8.810;2023-04-19T03:59:45;13.40;93.30
24232;DHT22;12364;47.810;8.810;2023-04-19T04:02:12;13.30;93.30
24232;DHT22;12364;47.810;8.810;2023-04-19T04:04:39;13.40;93.30
24232;DHT22;12364;47.810;8.810;2023-04-19T04:07:06;13.30;93.30
24232;DHT22;12364;47.810;8.810;2023-04-19T04:09:33;13.40;93.30
24232;DHT22;12364;47.810;8.810;2023-04-19T04:12:00;13.40;93.20
24232;DHT22;12364;47.810;8.810;2023-04-19T04:14:28;13.50;93.20
24232;DHT22;12364;47.810;8.810;2023-04-19T04:16:55;13.50;93.20
24232;DHT22;12364;47.810;8.810;2023-04-19T04:19:22;13.50;93.10
24232;DHT22;12364;47.810;8.810;2023-04-19T04:21:49;13.50;93.10
24232;DHT22;12364;47.810;8.810;2023-04-19T04:24:16;13.50;93.10
24232;DHT22;12364;47.810;8.810;2023-04-19T04:26:43;13.50;93.00
24232;DHT22;12364;47.810;8.810;2023-04-19T04:29:10;13.40;93.00
24232;DHT22;12364;47.810;8.810;2023-04-19T04:31:37;13.60;93.10
24232;DHT22;12364;47.810;8.810;2023-04-19T04:34:04;13.50;93.00
24232;DHT22;12364;47.810;8.810;2023-04-19T04:36:32;13.40;93.00
24232;DHT22;12364;47.810;8.810;2023-04-19T04:38:59;13.50;93.00
24232;DHT22;12364;47.810;8.810;2023-04-19T04:41:27;13.60;93.20
24232;DHT22;12364;47.810;8.810;2023-04-19T04:43:57;13.50;93.10
24232;DHT22;12364;47.810;8.810;2023-04-19T04:46:46;13.50;93.20
24232;DHT22;12364;47.810;8.810;2023-04-19T04:49:14;13.60;93.10
24232;DHT22;12364;47.810;8.810;2023-04-19T04:51:41;13.60;93.20
24232;DHT22;12364;47.810;8.810;2023-04-19T04:54:08;13.50;93.10
24232;DHT22;12364;47.810;8.810;2023-04-19T04:56:35;13.60;93.00
24232;DHT22;12364;47.810;8.810;2023-04-19T04:59:02;13.60;93.10
24232;DHT22;12364;47.810;8.810;2023-04-19T05:01:29;13.60;93.20
24232;DHT22;12364;47.810;8.810;2023-04-19T05:03:56;13.60;93.10
24232;DHT22;12364;47.810;8.810;2023-04-19T05:06:23;13.60;93.10
24232;DHT22;12364;47.810;8.810;2023-04-19T05:08:50;13.60;93.00
24232;DHT22;12364;47.810;8.810;2023-04-19T05:11:17;13.60;93.10
24232;DHT22;12364;47.810;8.810;2023-04-19T05:13:44;13.50;93.00
24232;DHT22;12364;47.810;8.810;2023-04-19T05:16:11;13.50;93.10
24232;DHT22;12364;47.810;8.810;2023-04-19T05:18:38;13.50;93.00
24232;DHT22;12364;47.810;8.810;2023-04-19T05:21:05;13.60;93.20
24232;DHT22;12364;47.810;8.810;2023-04-19T05:23:33;13.40;93.10
24232;DHT22;12364;47.810;8.810;2023-04-19T05:26:01;13.40;93.10
24232;DHT22;12364;47.810;8.810;2023-04-19T05:28:28;13.30;92.90
24232;DHT22;12364;47.810;8.810;2023-04-19T05:30:54;13.10;93.20
24232;DHT22;12364;47.810;8.810;2023-04-19T05:33:21;13.10;93.50
24232;DHT22;12364;47.810;8.810;2023-04-19T05:35:48;13.10;93.50
24232;DHT22;12364;47.810;8.810;2023-04-19T05:38:15;13.10;93.50
24232;DHT22;12364;47.810;8.810;2023-04-19T05:40:44;13.10;93.50
24232;DHT22;12364;47.810;8.810;2023-04-19T05:43:11;13.20;93.50
24232;DHT22;12364;47.810;8.810;2023-04-19T05:45:38;13.10;93.40
24232;DHT22;12364;47.810;8.810;2023-04-19T05:48:05;13.20;93.50
24232;DHT22;12364;47.810;8.810;2023-04-19T05:50:32;13.20;93.50
24232;DHT22;12364;47.810;8.810;2023-04-19T05:52:59;13.10;93.40
24232;DHT22;12364;47.810;8.810;2023-04-19T05:55:26;13.10;93.80
24232;DHT22;12364;47.810;8.810;2023-04-19T05:57:53;13.10;93.60
24232;DHT22;12364;47.810;8.810;2023-04-19T06:00:20;13.10;93.70
24232;DHT22;12364;47.810;8.810;2023-04-19T06:02:47;13.10;93.60
24232;DHT22;12364;47.810;8.810;2023-04-19T06:05:14;13.20;93.60
24232;DHT22;12364;47.810;8.810;2023-04-19T06:07:42;13.20;93.60
24232;DHT22;12364;47.810;8.810;2023-04-19T06:10:21;13.10;93.60
24232;DHT22;12364;47.810;8.810;2023-04-19T06:12:48;13.10;93.60
24232;DHT22;12364;47.810;8.810;2023-04-19T06:15:15;13.10;93.70
24232;DHT22;12364;47.810;8.810;2023-04-19T06:17:42;13.10;93.70
24232;DHT22;12364;47.810;8.810;2023-04-19T06:20:09;13.10;93.70
24232;DHT22;12364;47.810;8.810;2023-04-19T06:22:43;13.10;93.70
24232;DHT22;12364;47.810;8.810;2023-04-19T06:25:10;13.20;93.70
24232;DHT22;12364;47.810;8.810;2023-04-19T06:27:37;13.20;93.60
24232;DHT22;12364;47.810;8.810;2023-04-19T06:30:04;13.20;93.50
24232;DHT22;12364;47.810;8.810;2023-04-19T06:32:32;13.20;93.60
24232;DHT22;12364;47.810;8.810;2023-04-19T06:34:59;13.20;93.80
24232;DHT22;12364;47.810;8.810;2023-04-19T06:37:26;13.20;93.70
24232;DHT22;12364;47.810;8.810;2023-04-19T06:39:53;13.30;93.70
24232;DHT22;12364;47.810;8.810;2023-04-19T06:42:20;13.30;93.80
24232;DHT22;12364;47.810;8.810;2023-04-19T06:44:47;13.40;93.80
24232;DHT22;12364;47.810;8.810;2023-04-19T06:47:14;13.40;93.60
24232;DHT22;12364;47.810;8.810;2023-04-19T06:49:41;13.40;93.80
24232;DHT22;12364;47.810;8.810;2023-04-19T06:52:08;13.40;93.60
24232;DHT22;12364;47.810;8.810;2023-04-19T06:54:34;13.40;93.50
24232;DHT22;12364;47.810;8.810;2023-04-19T06:57:01;13.40;93.50
24232;DHT22;12364;47.810;8.810;2023-04-19T06:59:29;13.40;93.70
24232;DHT22;12364;47.810;8.810;2023-04-19T07:01:58;13.40;93.40
24232;DHT22;12364;47.810;8.810;2023-04-19T07:04:25;13.40;93.80
24232;DHT22;12364;47.810;8.810;2023-04-19T07:06:52;13.40;93.50
24232;DHT22;12364;47.810;8.810;2023-04-19T07:09:19;13.40;93.70
24232;DHT22;12364;47.810;8.810;2023-04-19T07:11:46;13.40;93.40
24232;DHT22;12364;47.810;8.810;2023-04-19T07:14:14;13.40;93.50
24232;DHT22;12364;47.810;8.810;2023-04-19T07:16:41;13.40;93.60
24232;DHT22;12364;47.810;8.810;2023-04-19T07:19:08;13.40;93.50
24232;DHT22;12364;47.810;8.810;2023-04-19T07:21:35;13.40;93.50
24232;DHT22;12364;47.810;8.810;2023-04-19T07:24:04;13.30;93.50
24232;DHT22;12364;47.810;8.810;2023-04-19T07:26:32;13.30;93.70
24232;DHT22;12364;47.810;8.810;2023-04-19T07:28:59;13.20;93.50
24232;DHT22;12364;47.810;8.810;2023-04-19T07:31:26;13.00;93.60
24232;DHT22;12364;47.810;8.810;2023-04-19T07:33:54;12.90;93.70
24232;DHT22;12364;47.810;8.810;2023-04-19T07:36:21;12.90;93.80
24232;DHT22;12364;47.810;8.810;2023-04-19T07:38:48;12.90;93.90
24232;DHT22;12364;47.810;8.810;2023-04-19T07:41:15;13.10;93.90
24232;DHT22;12364;47.810;8.810;2023-04-19T07:43:42;13.10;94.00
24232;DHT22;12364;47.810;8.810;2023-04-19T07:46:10;13.10;94.00
24232;DHT22;12364;47.810;8.810;2023-04-19T07:48:37;13.10;93.60
24232;DHT22;12364;47.810;8.810;2023-04-19T07:51:10;13.10;93.60
24232;DHT22;12364;47.810;8.810;2023-04-19T07:53:38;13.10;93.70
24232;DHT22;12364;47.810;8.810;2023-04-19T07:56:06;13.10;93.70
24232;DHT22;12364;47.810;8.810;2023-04-19T07:58:34;13.20;93.80
24232;DHT22;12364;47.810;8.810;2023-04-19T08:01:01;13.20;93.70
24232;DHT22;12364;47.810;8.810;2023-04-19T08:03:28;13.20;93.90
24232;DHT22;12364;47.810;8.810;2023-04-19T08:05:56;13.10;94.00
24232;DHT22;12364;47.810;8.810;2023-04-19T08:08:23;12.90;94.00
24232;DHT22;12364;47.810;8.810;2023-04-19T08:10:52;13.00;94.00
24232;DHT22;12364;47.810;8.810;2023-04-19T08:13:20;13.10;94.10
24232;DHT22;12364;47.810;8.810;2023-04-19T08:15:47;13.10;94.00
24232;DHT22;12364;47.810;8.810;2023-04-19T08:18:17;13.20;93.80
24232;DHT22;12364;47.810;8.810;2023-04-19T08:20:45;13.10;93.80
24232;DHT22;12364;47.810;8.810;2023-04-19T08:23:12;13.20;94.00
24232;DHT22;12364;47.810;8.810;2023-04-19T08:25:50;13.30;94.10
24232;DHT22;12364;47.810;8.810;2023-04-19T08:28:17;13.40;94.10
24232;DHT22;12364;47.810;8.810;2023-04-19T08:30:44;13.50;94.00
24232;DHT22;12364;47.810;8.810;2023-04-19T08:33:11;13.50;93.60
24232;DHT22;12364;47.810;8.810;2023-04-19T08:35:38;13.60;93.80
24232;DHT22;12364;47.810;8.810;2023-04-19T08:38:08;13.60;93.80
24232;DHT22;12364;47.810;8.810;2023-04-19T08:40:37;13.70;93.90
24232;DHT22;12364;47.810;8.810;2023-04-19T08:43:06;13.70;93.60
24232;DHT22;12364;47.810;8.810;2023-04-19T08:45:33;13.60;93.60
24232;DHT22;12364;47.810;8.810;2023-04-19T08:48:01;13.50;93.70
24232;DHT22;12364;47.810;8.810;2023-04-19T08:50:29;13.50;93.80
24232;DHT22;12364;47.810;8.810;2023-04-19T08:53:11;13.50;93.90
24232;DHT22;12364;47.810;8.810;2023-04-19T08:55:41;13.50;94.10
24232;DHT22;12364;47.810;8.810;2023-04-19T08:58:29;13.50;94.20
24232;DHT22;12364;47.810;8.810;2023-04-19T09:01:18;13.40;94.10
24232;DHT22;12364;47.810;8.810;2023-04-19T09:04:00;13.40;94.20
24232;DHT22;12364;47.810;8.810;2023-04-19T09:06:47;13.50;94.20
24232;DHT22;12364;47.810;8.810;2023-04-19T09:09:16;13.70;94.20
24232;DHT22;12364;47.810;8.810;2023-04-19T09:11:46;13.70;94.00
24232;DHT22;12364;47.810;8.810;2023-04-19T09:14:14;13.70;93.60
24232;DHT22;12364;47.810;8.810;2023-04-19T09:16:41;13.70;93.60
24232;DHT22;12364;47.810;8.810;2023-04-19T09:19:09;13.70;93.80
24232;DHT22;12364;47.810;8.810;2023-04-19T09:21:50;13.70;93.90
24232;DHT22;12364;47.810;8.810;2023-04-19T09:24:24;13.80;93.80
24232;DHT22;12364;47.810;8.810;2023-04-19T09:27:30;13.80;93.90
24232;DHT22;12364;47.810;8.810;2023-04-19T09:29:58;13.80;93.50
24232;DHT22;12364;47.810;8.810;2023-04-19T09:32:26;13.90;93.30
24232;DHT22;12364;47.810;8.810;2023-04-19T09:34:54;13.90;93.50
24232;DHT22;12364;47.810;8.810;2023-04-19T09:37:21;13.80;93.20
24232;DHT22;12364;47.810;8.810;2023-04-19T09:40:24;13.80;93.50
24232;DHT22;12364;47.810;8.810;2023-04-19T09:42:51;13.90;93.30
24232;DHT22;12364;47.810;8.810;2023-04-19T09:45:21;13.90;93.20
24232;DHT22;12364;47.810;8.810;2023-04-19T09:48:00;13.90;93.30
24232;DHT22;12364;47.810;8.810;2023-04-19T09:50:29;13.90;93.30
24232;DHT22;12364;47.810;8.810;2023-04-19T09:52:58;13.90;93.40
24232;DHT22;12364;47.810;8.810;2023-04-19T09:55:25;13.90;92.80
24232;DHT22;12364;47.810;8.810;2023-04-19T09:57:56;13.90;93.10
24232;DHT22;12364;47.810;8.810;2023-04-19T10:00:23;13.90;93.20
24232;DHT22;12364;47.810;8.810;2023-04-19T10:02:51;14.00;93.00
24232;DHT22;12364;47.810;8.810;2023-04-19T10:05:23;14.10;93.00
24232;DHT22;12364;47.810;8.810;2023-04-19T10:07:52;14.20;93.10
24232;DHT22;12364;47.810;8.810;2023-04-19T10:10:25;14.40;92.80
24232;DHT22;12364;47.810;8.810;2023-04-19T10:13:10;14.40;92.80
24232;DHT22;12364;47.810;8.810;2023-04-19T10:15:46;14.50;92.60
24232;DHT22;12364;47.810;8.810;2023-04-19T10:18:22;14.40;92.60
24232;DHT22;12364;47.810;8.810;2023-04-19T10:20:59;14.50;92.80
24232;DHT22;12364;47.810;8.810;2023-04-19T10:23:27;14.50;92.70
24232;DHT22;12364;47.810;8.810;2023-04-19T10:25:55;14.50;92.30
24232;DHT22;12364;47.810;8.810;2023-04-19T10:28:23;14.50;92.40
24232;DHT22;12364;47.810;8.810;2023-04-19T10:33:23;14.40;92.40
24232;DHT22;12364;47.810;8.810;2023-04-19T10:35:53;14.40;92.80
24232;DHT22;12364;47.810;8.810;2023-04-19T10:38:24;14.40;92.50
24232;DHT22;12364;47.810;8.810;2023-04-19T10:41:01;14.50;92.30
24232;DHT22;12364;47.810;8.810;2023-04-19T10:43:30;14.50;92.00
24232;DHT22;12364;47.810;8.810;2023-04-19T10:45:57;14.60;92.20
24232;DHT22;12364;47.810;8.810;2023-04-19T10:50:59;14.60;91.90
24232;DHT22;12364;47.810;8.810;2023-04-19T10:53:42;14.70;91.60
24232;DHT22;12364;47.810;8.810;2023-04-19T10:56:10;14.70;91.50
24232;DHT22;12364;47.810;8.810;2023-04-19T10:59:23;14.80;91.90
24232;DHT22;12364;47.810;8.810;2023-04-19T11:01:31;14.80;91.50
24232;DHT22;12364;47.810;8.810;2023-04-19T11:03:59;14.90;91.70
24232;DHT22;12364;47.810;8.810;2023-04-19T11:06:27;15.00;91.40
24232;DHT22;12364;47.810;8.810;2023-04-19T11:08:54;15.10;91.40
24232;DHT22;12364;47.810;8.810;2023-04-19T11:11:21;15.20;91.30
24232;DHT22;12364;47.810;8.810;2023-04-19T11:13:48;15.20;91.00
24232;DHT22;12364;47.810;8.810;2023-04-19T11:16:15;15.20;91.20
24232;DHT22;12364;47.810;8.810;2023-04-19T11:18:45;15.20;91.30
24232;DHT22;12364;47.810;8.810;2023-04-19T11:21:12;15.30;90.90
24232;DHT22;12364;47.810;8.810;2023-04-19T11:23:40;15.30;91.00
24232;DHT22;12364;47.810;8.810;2023-04-19T11:26:10;15.30;90.70
24232;DHT22;12364;47.810;8.810;2023-04-19T11:28:38;15.30;90.70
24232;DHT22;12364;47.810;8.810;2023-04-19T11:31:05;15.50;90.90
24232;DHT22;12364;47.810;8.810;2023-04-19T11:33:35;15.30;90.80
24232;DHT22;12364;47.810;8.810;2023-04-19T11:36:02;15.40;91.00
24232;DHT22;12364;47.810;8.810;2023-04-19T11:38:29;15.40;91.20
24232;DHT22;12364;47.810;8.810;2023-04-19T11:41:00;15.40;90.60
24232;DHT22;12364;47.810;8.810;2023-04-19T11:46:03;15.50;90.40
24232;DHT22;12364;47.810;8.810;2023-04-19T11:48:32;15.50;90.50
24232;DHT22;12364;47.810;8.810;2023-04-19T11:50:59;15.50;90.60
24232;DHT22;12364;47.810;8.810;2023-04-19T11:53:26;15.50;90.20
24232;DHT22;12364;47.810;8.810;2023-04-19T11:55:54;15.60;90.40
24232;DHT22;12364;47.810;8.810;2023-04-19T11:58:28;15.60;90.10
24232;DHT22;12364;47.810;8.810;2023-04-19T12:00:56;15.60;90.10
24232;DHT22;12364;47.810;8.810;2023-04-19T12:03:26;15.60;90.00
24232;DHT22;12364;47.810;8.810;2023-04-19T12:05:57;15.60;90.20
24232;DHT22;12364;47.810;8.810;2023-04-19T12:10:58;15.60;90.80
24232;DHT22;12364;47.810;8.810;2023-04-19T12:13:25;15.60;90.60
24232;DHT22;12364;47.810;8.810;2023-04-19T12:15:52;15.80;90.60
24232;DHT22;12364;47.810;8.810;2023-04-19T12:18:19;15.80;90.20
24232;DHT22;12364;47.810;8.810;2023-04-19T12:20:46;15.80;90.60
24232;DHT22;12364;47.810;8.810;2023-04-19T12:23:14;15.90;90.60
24232;DHT22;12364;47.810;8.810;2023-04-19T12:25:43;15.80;90.30
24232;DHT22;12364;47.810;8.810;2023-04-19T12:28:10;15.80;90.30
24232;DHT22;12364;47.810;8.810;2023-04-19T12:30:38;15.90;90.60
24232;DHT22;12364;47.810;8.810;2023-04-19T12:33:05;15.90;90.50
24232;DHT22;12364;47.810;8.810;2023-04-19T12:35:33;15.90;90.50
24232;DHT22;12364;47.810;8.810;2023-04-19T12:38:01;15.90;90.20
24232;DHT22;12364;47.810;8.810;2023-04-19T12:40:28;15.90;90.80
24232;DHT22;12364;47.810;8.810;2023-04-19T12:42:56;16.00;90.60
24232;DHT22;12364;47.810;8.810;2023-04-19T12:45:23;16.00;90.20
24232;DHT22;12364;47.810;8.810;2023-04-19T12:47:50;16.00;90.10
24232;DHT22;12364;47.810;8.810;2023-04-19T12:50:17;16.00;90.30
24232;DHT22;12364;47.810;8.810;2023-04-19T12:52:44;16.10;90.30
24232;DHT22;12364;47.810;8.810;2023-04-19T12:55:11;16.10;90.10
24232;DHT22;12364;47.810;8.810;2023-04-19T12:57:38;16.20;90.30
24232;DHT22;12364;47.810;8.810;2023-04-19T13:00:06;16.10;90.00
24232;DHT22;12364;47.810;8.810;2023-04-19T13:02:33;16.20;90.30
24232;DHT22;12364;47.810;8.810;2023-04-19T13:05:01;16.20;89.30
24232;DHT22;12364;47.810;8.810;2023-04-19T13:07:29;16.20;89.70
24232;DHT22;12364;47.810;8.810;2023-04-19T13:09:57;16.20;90.20
24232;DHT22;12364;47.810;8.810;2023-04-19T13:12:24;16.30;90.20
24232;DHT22;12364;47.810;8.810;2023-04-19T13:14:51;16.30;90.20
24232;DHT22;12364;47.810;8.810;2023-04-19T13:17:18;16.30;90.20
24232;DHT22;12364;47.810;8.810;2023-04-19T13:19:46;16.30;90.30
24232;DHT22;12364;47.810;8.810;2023-04-19T13:22:13;16.40;90.30
24232;DHT22;12364;47.810;8.810;2023-04-19T13:24:41;16.40;90.00
24232;DHT22;12364;47.810;8.810;2023-04-19T13:27:08;16.50;89.90
24232;DHT22;12364;47.810;8.810;2023-04-19T13:29:35;16.40;89.90
24232;DHT22;12364;47.810;8.810;2023-04-19T13:32:02;16.40;89.40
24232;DHT22;12364;47.810;8.810;2023-04-19T13:34:32;16.40;89.60
24232;DHT22;12364;47.810;8.810;2023-04-19T13:36:59;16.50;89.60
24232;DHT22;12364;47.810;8.810;2023-04-19T13:39:27;16.50;89.30
24232;DHT22;12364;47.810;8.810;2023-04-19T13:41:54;16.50;89.90
24232;DHT22;12364;47.810;8.810;2023-04-19T13:44:20;16.50;89.70
24232;DHT22;12364;47.810;8.810;2023-04-19T13:46:47;16.60;89.30
24232;DHT22;12364;47.810;8.810;2023-04-19T13:49:14;16.50;88.90
24232;DHT22;12364;47.810;8.810;2023-04-19T13:51:41;16.60;88.90
24232;DHT22;12364;47.810;8.810;2023-04-19T13:54:16;16.50;89.00
24232;DHT22;12364;47.810;8.810;2023-04-19T13:56:45;16.60;88.90
24232;DHT22;12364;47.810;8.810;2023-04-19T13:59:14;16.60;89.40
24232;DHT22;12364;47.810;8.810;2023-04-19T14:01:41;16.60;88.40
24232;DHT22;12364;47.810;8.810;2023-04-19T14:04:08;16.60;88.70
24232;DHT22;12364;47.810;8.810;2023-04-19T14:06:36;16.70;88.30
24232;DHT22;12364;47.810;8.810;2023-04-19T14:09:03;16.70;88.70
24232;DHT22;12364;47.810;8.810;2023-04-19T14:11:30;16.70;88.70
24232;DHT22;12364;47.810;8.810;2023-04-19T14:13:56;16.70;88.90
24232;DHT22;12364;47.810;8.810;2023-04-19T14:16:24;16.70;88.10
24232;DHT22;12364;47.810;8.810;2023-04-19T14:18:51;16.70;88.30
24232;DHT22;12364;47.810;8.810;2023-04-19T14:21:18;16.70;88.70
24232;DHT22;12364;47.810;8.810;2023-04-19T14:23:45;16.90;88.60
24232;DHT22;12364;47.810;8.810;2023-04-19T14:26:12;16.60;87.60
24232;DHT22;12364;47.810;8.810;2023-04-19T14:28:39;16.60;87.40
24232;DHT22;12364;47.810;8.810;2023-04-19T14:31:06;16.60;87.60
24232;DHT22;12364;47.810;8.810;2023-04-19T14:33:33;16.60;87.70
24232;DHT22;12364;47.810;8.810;2023-04-19T14:36:01;16.60;87.40
24232;DHT22;12364;47.810;8.810;2023-04-19T14:38:28;16.60;87.30
24232;DHT22;12364;47.810;8.810;2023-04-19T14:40:54;16.50;87.60
24232;DHT22;12364;47.810;8.810;2023-04-19T14:43:22;16.50;87.10
24232;DHT22;12364;47.810;8.810;2023-04-19T14:45:49;16.50;88.00
24232;DHT22;12364;47.810;8.810;2023-04-19T14:48:16;16.50;88.80
24232;DHT22;12364;47.810;8.810;2023-04-19T14:50:47;16.50;88.20
24232;DHT22;12364;47.810;8.810;2023-04-19T14:53:14;16.40;88.20
24232;DHT22;12364;47.810;8.810;2023-04-19T14:55:41;16.20;88.20
24232;DHT22;12364;47.810;8.810;2023-04-19T14:58:08;16.10;88.70
24232;DHT22;12364;47.810;8.810;2023-04-19T15:00:35;16.00;88.90
24232;DHT22;12364;47.810;8.810;2023-04-19T15:03:02;15.90;89.30
24232;DHT22;12364;47.810;8.810;2023-04-19T15:05:29;15.80;89.20
24232;DHT22;12364;47.810;8.810;2023-04-19T15:08:00;15.80;89.50
24232;DHT22;12364;47.810;8.810;2023-04-19T15:10:26;15.80;89.60
24232;DHT22;12364;47.810;8.810;2023-04-19T15:12:54;15.80;89.60
24232;DHT22;12364;47.810;8.810;2023-04-19T15:15:21;15.80;89.90
24232;DHT22;12364;47.810;8.810;2023-04-19T15:17:48;15.80;90.00
24232;DHT22;12364;47.810;8.810;2023-04-19T15:20:15;15.80;90.10
24232;DHT22;12364;47.810;8.810;2023-04-19T15:22:42;15.80;90.10
24232;DHT22;12364;47.810;8.810;2023-04-19T15:25:09;15.80;90.20
24232;DHT22;12364;47.810;8.810;2023-04-19T15:27:36;15.90;90.40
24232;DHT22;12364;47.810;8.810;2023-04-19T15:30:03;15.80;90.00
24232;DHT22;12364;47.810;8.810;2023-04-19T15:32:30;15.80;89.80
24232;DHT22;12364;47.810;8.810;2023-04-19T15:34:59;15.80;90.00
24232;DHT22;12364;47.810;8.810;2023-04-19T15:37:26;15.80;90.30
24232;DHT22;12364;47.810;8.810;2023-04-19T15:39:53;15.80;88.90
24232;DHT22;12364;47.810;8.810;2023-04-19T15:42:20;15.60;87.60
24232;DHT22;12364;47.810;8.810;2023-04-19T15:44:47;15.70;88.40
24232;DHT22;12364;47.810;8.810;2023-04-19T15:47:14;15.60;88.50
24232;DHT22;12364;47.810;8.810;2023-04-19T15:49:41;15.60;89.00
24232;DHT22;12364;47.810;8.810;2023-04-19T15:52:08;15.60;89.20
24232;DHT22;12364;47.810;8.810;2023-04-19T15:54:35;15.50;89.40
24232;DHT22;12364;47.810;8.810;2023-04-19T15:57:03;15.60;90.00
24232;DHT22;12364;47.810;8.810;2023-04-19T15:59:30;15.50;90.20
24232;DHT22;12364;47.810;8.810;2023-04-19T16:01:57;15.60;90.40
24232;DHT22;12364;47.810;8.810;2023-04-19T16:04:24;15.50;90.10
24232;DHT22;12364;47.810;8.810;2023-04-19T16:06:51;15.60;89.90
24232;DHT22;12364;47.810;8.810;2023-04-19T16:09:18;15.40;89.50
24232;DHT22;12364;47.810;8.810;2023-04-19T16:11:45;15.40;90.00
24232;DHT22;12364;47.810;8.810;2023-04-19T16:14:12;15.30;89.60
24232;DHT22;12364;47.810;8.810;2023-04-19T16:16:39;15.20;89.90
24232;DHT22;12364;47.810;8.810;2023-04-19T16:19:06;15.20;90.10
24232;DHT22;12364;47.810;8.810;2023-04-19T16:21:33;15.20;90.10
24232;DHT22;12364;47.810;8.810;2023-04-19T16:24:00;15.20;90.90
24232;DHT22;12364;47.810;8.810;2023-04-19T16:26:27;15.30;91.60
24232;DHT22;12364;47.810;8.810;2023-04-19T16:28:54;15.20;91.80
24232;DHT22;12364;47.810;8.810;2023-04-19T16:31:21;15.20;92.00
24232;DHT22;12364;47.810;8.810;2023-04-19T16:33:48;15.10;92.00
24232;DHT22;12364;47.810;8.810;2023-04-19T16:36:15;15.10;92.20
24232;DHT22;12364;47.810;8.810;2023-04-19T16:38:42;15.00;92.30
24232;DHT22;12364;47.810;8.810;2023-04-19T16:41:09;15.00;92.60
24232;DHT22;12364;47.810;8.810;2023-04-19T16:43:37;14.90;92.70
24232;DHT22;12364;47.810;8.810;2023-04-19T16:46:04;15.00;92.90
24232;DHT22;12364;47.810;8.810;2023-04-19T16:48:32;15.00;93.10
24232;DHT22;12364;47.810;8.810;2023-04-19T16:50:59;14.80;92.90
24232;DHT22;12364;47.810;8.810;2023-04-19T16:53:26;14.80;93.10
24232;DHT22;12364;47.810;8.810;2023-04-19T16:55:53;14.70;93.30
24232;DHT22;12364;47.810;8.810;2023-04-19T16:58:22;14.70;93.40
24232;DHT22;12364;47.810;8.810;2023-04-19T17:00:49;14.70;93.60
24232;DHT22;12364;47.810;8.810;2023-04-19T17:03:16;14.70;93.70
24232;DHT22;12364;47.810;8.810;2023-04-19T17:05:43;14.60;93.80
24232;DHT22;12364;47.810;8.810;2023-04-19T17:08:10;14.60;93.80
24232;DHT22;12364;47.810;8.810;2023-04-19T17:10:37;14.60;94.00
24232;DHT22;12364;47.810;8.810;2023-04-19T17:13:05;14.60;94.00
24232;DHT22;12364;47.810;8.810;2023-04-19T17:15:32;14.60;94.10
24232;DHT22;12364;47.810;8.810;2023-04-19T17:17:59;14.60;94.10
24232;DHT22;12364;47.810;8.810;2023-04-19T17:20:26;14.70;94.00
24232;DHT22;12364;47.810;8.810;2023-04-19T17:22:53;14.60;94.00
24232;DHT22;12364;47.810;8.810;2023-04-19T17:25:20;14.60;94.10
24232;DHT22;12364;47.810;8.810;2023-04-19T17:27:48;14.60;94.10
24232;DHT22;12364;47.810;8.810;2023-04-19T17:30:15;14.50;94.10
24232;DHT22;12364;47.810;8.810;2023-04-19T17:32:42;14.50;93.40
24232;DHT22;12364;47.810;8.810;2023-04-19T17:35:09;14.20;92.90
24232;DHT22;12364;47.810;8.810;2023-04-19T17:37:36;13.80;93.10
24232;DHT22;12364;47.810;8.810;2023-04-19T17:40:03;13.50;93.60
24232;DHT22;12364;47.810;8.810;2023-04-19T17:42:30;13.40;93.40
24232;DHT22;12364;47.810;8.810;2023-04-19T17:44:57;13.30;93.30
24232;DHT22;12364;47.810;8.810;2023-04-19T17:47:25;13.20;92.80
24232;DHT22;12364;47.810;8.810;2023-04-19T17:50:02;13.10;93.30
24232;DHT22;12364;47.810;8.810;2023-04-19T17:52:29;13.00;92.90
24232;DHT22;12364;47.810;8.810;2023-04-19T17:54:56;13.00;92.50
24232;DHT22;12364;47.810;8.810;2023-04-19T17:57:23;13.00;92.50
24232;DHT22;12364;47.810;8.810;2023-04-19T17:59:53;13.00;92.50
24232;DHT22;12364;47.810;8.810;2023-04-19T18:02:20;13.00;92.10
24232;DHT22;12364;47.810;8.810;2023-04-19T18:04:47;13.10;92.20
24232;DHT22;12364;47.810;8.810;2023-04-19T18:07:14;13.00;91.90
24232;DHT22;12364;47.810;8.810;2023-04-19T18:09:41;13.00;91.50
24232;DHT22;12364;47.810;8.810;2023-04-19T18:12:08;13.00;91.60
24232;DHT22;12364;47.810;8.810;2023-04-19T18:14:35;13.00;91.30
24232;DHT22;12364;47.810;8.810;2023-04-19T18:17:02;13.00;91.60
24232;DHT22;12364;47.810;8.810;2023-04-19T18:19:31;13.00;91.50
24232;DHT22;12364;47.810;8.810;2023-04-19T18:21:58;13.00;91.60
24232;DHT22;12364;47.810;8.810;2023-04-19T18:24:25;13.00;91.80
24232;DHT22;12364;47.810;8.810;2023-04-19T18:26:52;13.00;91.20
24232;DHT22;12364;47.810;8.810;2023-04-19T18:29:19;13.00;91.90
24232;DHT22;12364;47.810;8.810;2023-04-19T18:31:48;13.00;91.30
24232;DHT22;12364;47.810;8.810;2023-04-19T18:34:15;13.00;91.70
24232;DHT22;12364;47.810;8.810;2023-04-19T18:36:42;13.00;91.50
24232;DHT22;12364;47.810;8.810;2023-04-19T18:39:10;13.00;91.80
24232;DHT22;12364;47.810;8.810;2023-04-19T18:41:38;13.00;91.50
24232;DHT22;12364;47.810;8.810;2023-04-19T18:44:05;13.00;91.50
24232;DHT22;12364;47.810;8.810;2023-04-19T18:46:52;13.10;91.60
24232;DHT22;12364;47.810;8.810;2023-04-19T18:49:20;13.10;91.30
24232;DHT22;12364;47.810;8.810;2023-04-19T18:51:47;13.10;91.20
24232;DHT22;12364;47.810;8.810;2023-04-19T18:54:16;13.10;91.30
24232;DHT22;12364;47.810;8.810;2023-04-19T18:56:45;13.00;91.30
24232;DHT22;12364;47.810;8.810;2023-04-19T18:59:15;13.10;91.40
24232;DHT22;12364;47.810;8.810;2023-04-19T19:01:43;13.10;91.40
24232;DHT22;12364;47.810;8.810;2023-04-19T19:06:58;13.00;91.60
24232;DHT22;12364;47.810;8.810;2023-04-19T19:09:40;13.00;91.90
24232;DHT22;12364;47.810;8.810;2023-04-19T19:12:08;13.00;91.90
24232;DHT22;12364;47.810;8.810;2023-04-19T19:14:35;13.00;91.80
24232;DHT22;12364;47.810;8.810;2023-04-19T19:17:04;13.00;91.80
24232;DHT22;12364;47.810;8.810;2023-04-19T19:19:32;13.00;92.00
24232;DHT22;12364;47.810;8.810;2023-04-19T19:21:59;13.00;92.20
24232;DHT22;12364;47.810;8.810;2023-04-19T19:24:26;13.00;92.30
24232;DHT22;12364;47.810;8.810;2023-04-19T19:26:54;12.90;92.20
24232;DHT22;12364;47.810;8.810;2023-04-19T19:29:21;13.00;92.10
24232;DHT22;12364;47.810;8.810;2023-04-19T19:31:48;13.10;92.10
24232;DHT22;12364;47.810;8.810;2023-04-19T19:34:16;13.10;92.20
24232;DHT22;12364;47.810;8.810;2023-04-19T19:36:54;13.00;92.20